Time;durP1;ratioP1;P1;durP2;ratioP2;P2;SDS_P1;SDS_P2;PMS_P1;PMS_P2;Temp;Humidity;BMP_temperature;BMP_pressure;BME280_temperature;BME280_humidity;BME280_pressure;Samples;Min_cycle;Max_cycle;Signal;HPM_P1;HPM_P2
2022/11/03 00:01:34;;;;;;;;;;;;;;;;;;5054960;28;19953;-87
2022/11/03 00:04:00;;;;;;;;;;;;;;;;;;5055231;28;19917;-87
2022/11/03 00:06:25;;;;;;;;;;;;;;;;;;5055010;28;19924;-87
2022/11/03 00:08:51;;;;;;;;;;;;;;;;;;5037035;28;20391;-88
2022/11/03 00:11:17;;;;;;;;;;;;;;;;;;5037161;28;19917;-88
2022/11/03 00:13:42;;;;;;;;;;;;;;;;;;5037111;28;19921;-88
2022/11/03 00:16:09;;;;;;;;;;;;;;;;;;5054959;28;19923;-88
2022/11/03 00:18:35;;;;;;;;;;;;;;;;;;5054854;28;19975;-87
2022/11/03 00:21:05;;;;;;;;;;;;;;;;;;5054728;28;19951;-88
2022/11/03 00:23:31;;;;;;;;;;;;;;;;;;5054908;28;19912;-86
2022/11/03 00:26:16;;;;;;;;;;;;;;;;;;5054739;28;19983;-86
2022/11/03 00:28:43;;;;;;;;;;;;;;;;;;5054751;28;19916;-87
2022/11/03 00:31:09;;;;;;;;;;;;;;;;;;5036801;28;20288;-88
2022/11/03 00:33:37;;;;;;;;;;;;;;;;;;5054580;28;19924;-87
2022/11/03 00:36:03;;;;;;;;;;;;;;;;;;5054573;28;19917;-87
2022/11/03 00:38:29;;;;;;;;;;;;;;;;;;5054533;28;19917;-87
2022/11/03 00:41:01;;;;;;;;;;;;;;;;;;5054545;28;20015;-86
2022/11/03 00:43:27;;;;;;;;;;;;;;;;;;5054354;28;19916;-87
2022/11/03 00:45:53;;;;;;;;;;;;;;;;;;5053815;28;20015;-87
2022/11/03 00:48:33;;;;;;;;;;;;;;;;;;5035405;28;19975;-88
2022/11/03 00:51:00;;;;;;;;;;;;;;;;;;5035313;28;19928;-86
2022/11/03 00:53:26;;;;;;;;;;;;;;;;;;5053414;28;19966;-88
2022/11/03 00:55:51;;;;;;;;;;;;;;;;;;5053620;28;19913;-88
2022/11/03 00:58:16;;;;;;;;;;;;;;;;;;5035610;28;19916;-87
2022/11/03 01:00:42;;;;;;;;;;;;;;;;;;5053259;28;19924;-87
2022/11/03 01:03:07;;;;;;;;;;;;;;;;;;5053686;28;19959;-86
2022/11/03 01:08:16;;;;;;;;;;;;;;;;;;5054022;28;19928;-89
2022/11/03 01:11:42;;;;;;;;;;;;;;;;;;5053829;28;19921;-89
2022/11/03 01:13:27;;;;;;;;;;;;;;;;;;5053473;28;19921;-86
2022/11/03 01:15:57;;;;;;;;;;;;;;;;;;5053465;28;19923;-87
2022/11/03 01:18:23;;;;;;;;;;;;;;;;;;5053777;28;19917;-88
2022/11/03 01:20:58;;;;;;;;;;;;;;;;;;5036067;28;20007;-87
2022/11/03 01:23:23;;;;;;;;;;;;;;;;;;5035761;28;20300;-88
2022/11/03 01:25:49;;;;;;;;;;;;;;;;;;5053695;28;19939;-88
2022/11/03 01:28:14;;;;;;;;;;;;;;;;;;5053588;28;19927;-87
2022/11/03 01:30:39;;;;;;;;;;;;;;;;;;5035582;28;19917;-86
2022/11/03 01:33:05;;;;;;;;;;;;;;;;;;5053646;28;19959;-87
2022/11/03 01:35:30;;;;;;;;;;;;;;;;;;5053527;28;20003;-88
2022/11/03 01:37:56;;;;;;;;;;;;;;;;;;5052939;28;19916;-87
2022/11/03 01:40:22;;;;;;;;;;;;;;;;;;5053422;28;19948;-87
2022/11/03 01:42:47;;;;;;;;;;;;;;;;;;5053600;28;20344;-87
2022/11/03 01:45:12;;;;;;;;;;;;;;;;;;5053327;28;19964;-89
2022/11/03 01:47:38;;;;;;;;;;;;;;;;;;5035630;28;19917;-88
2022/11/03 01:50:09;;;;;;;;;;;;;;;;;;5053274;28;20468;-86
2022/11/03 01:52:43;;;;;;;;;;;;;;;;;;5053117;28;20024;-87
2022/11/03 01:55:18;;;;;;;;;;;;;;;;;;5035357;28;19917;-88
2022/11/03 01:57:46;;;;;;;;;;;;;;;;;;5053293;28;19917;-89
2022/11/03 02:00:12;;;;;;;;;;;;;;;;;;5052860;28;19921;-89
2022/11/03 02:02:37;;;;;;;;;;;;;;;;;;5053121;28;19994;-88
2022/11/03 02:05:03;;;;;;;;;;;;;;;;;;5053224;28;20273;-88
2022/11/03 02:07:34;;;;;;;;;;;;;;;;;;5053008;28;19917;-88
2022/11/03 02:10:00;;;;;;;;;;;;;;;;;;5053219;28;19975;-88
2022/11/03 02:12:25;;;;;;;;;;;;;;;;;;5052892;28;19916;-89
2022/11/03 02:14:59;;;;;;;;;;;;;;;;;;5035206;28;20260;-88
2022/11/03 02:17:26;;;;;;;;;;;;;;;;;;5053174;28;20019;-87
2022/11/03 02:19:51;;;;;;;;;;;;;;;;;;5035260;28;19928;-88
2022/11/03 02:22:36;;;;;;;;;;;;;;;;;;5052963;28;19913;-87
2022/11/03 02:25:08;;;;;;;;;;;;;;;;;;5052965;28;20011;-87
2022/11/03 02:27:33;;;;;;;;;;;;;;;;;;5035093;28;19912;-88
2022/11/03 02:29:59;;;;;;;;;;;;;;;;;;5035066;28;19970;-87
2022/11/03 02:32:28;;;;;;;;;;;;;;;;;;5052757;28;19921;-87
2022/11/03 02:35:12;;;;;;;;;;;;;;;;;;5035085;28;19924;-87
2022/11/03 02:37:41;;;;;;;;;;;;;;;;;;5052895;28;19921;-88
2022/11/03 02:40:10;;;;;;;;;;;;;;;;;;5034937;28;20388;-87
2022/11/03 02:42:37;;;;;;;;;;;;;;;;;;5052711;28;19917;-89
2022/11/03 02:45:06;;;;;;;;;;;;;;;;;;5052782;28;20280;-87
2022/11/03 02:47:32;;;;;;;;;;;;;;;;;;5052816;28;20015;-88
2022/11/03 02:49:57;;;;;;;;;;;;;;;;;;5054412;28;20009;-86
2022/11/03 02:52:37;;;;;;;;;;;;;;;;;;5056469;28;19968;-87
2022/11/03 02:55:08;;;;;;;;;;;;;;;;;;5056365;28;20284;-88
2022/11/03 02:57:35;;;;;;;;;;;;;;;;;;5038360;28;19940;-87
2022/11/03 03:00:05;;;;;;;;;;;;;;;;;;5056143;28;19921;-87
2022/11/03 03:02:40;;;;;;;;;;;;;;;;;;5038386;28;19917;-88
2022/11/03 03:05:07;;;;;;;;;;;;;;;;;;5056169;28;19970;-86
2022/11/03 03:07:35;;;;;;;;;;;;;;;;;;5055801;28;20260;-87
2022/11/03 03:10:07;;;;;;;;;;;;;;;;;;5053078;28;19920;-88
2022/11/03 03:12:34;;;;;;;;;;;;;;;;;;5055893;28;19962;-88
2022/11/03 03:15:00;;;;;;;;;;;;;;;;;;5056073;28;19926;-86
2022/11/03 03:17:39;;;;;;;;;;;;;;;;;;5056040;28;19917;-88
2022/11/03 03:20:04;;;;;;;;;;;;;;;;;;5038110;28;19921;-87
2022/11/03 03:22:42;;;;;;;;;;;;;;;;;;5055987;28;20378;-86
2022/11/03 03:25:14;;;;;;;;;;;;;;;;;;5056282;28;20360;-88
2022/11/03 03:27:43;;;;;;;;;;;;;;;;;;5038837;28;19913;-87
2022/11/03 03:30:09;;;;;;;;;;;;;;;;;;5056381;28;20012;-87
2022/11/03 03:32:39;;;;;;;;;;;;;;;;;;5037899;28;19956;-88
2022/11/03 03:35:09;;;;;;;;;;;;;;;;;;5044648;28;19925;-86
2022/11/03 03:37:36;;;;;;;;;;;;;;;;;;5051847;28;20039;-87
2022/11/03 03:40:03;;;;;;;;;;;;;;;;;;5049775;28;19929;-86
2022/11/03 03:42:30;;;;;;;;;;;;;;;;;;5064988;28;19972;-88
2022/11/03 03:44:56;;;;;;;;;;;;;;;;;;5057057;28;19940;-86
2022/11/03 03:47:28;;;;;;;;;;;;;;;;;;5056136;28;20323;-86
2022/11/03 03:49:53;;;;;;;;;;;;;;;;;;5038023;28;19917;-87
2022/11/03 03:52:19;;;;;;;;;;;;;;;;;;5037423;28;20376;-87
2022/11/03 03:54:45;;;;;;;;;;;;;;;;;;5055517;28;19944;-87
2022/11/03 03:57:15;;;;;;;;;;;;;;;;;;5055267;28;19966;-89
2022/11/03 03:59:41;;;;;;;;;;;;;;;;;;5055091;28;19927;-87
2022/11/03 04:02:06;;;;;;;;;;;;;;;;;;5045918;28;19921;-87
2022/11/03 04:04:32;;;;;;;;;;;;;;;;;;5040460;28;19921;-88
2022/11/03 04:09:42;;;;;;;;;;;;;;;;;;5035430;28;19971;-89
2022/11/03 04:23:05;;;;;;;;;;;;;;;;;;5045319;28;19928;-88
2022/11/03 04:25:30;;;;;;;;;;;;;;;;;;5045558;28;19917;-89
2022/11/03 04:27:56;;;;;;;;;;;;;;;;;;5028377;28;19924;-87
2022/11/03 04:30:23;;;;;;;;;;;;;;;;;;5046056;28;19917;-87
2022/11/03 04:32:49;;;;;;;;;;;;;;;;;;5043140;28;20012;-88
2022/11/03 04:35:16;;;;;;;;;;;;;;;;;;5026445;28;19995;-87
2022/11/03 04:37:42;;;;;;;;;;;;;;;;;;5045717;28;19916;-88
2022/11/03 04:40:12;;;;;;;;;;;;;;;;;;5054621;28;19917;-87
2022/11/03 04:42:37;;;;;;;;;;;;;;;;;;5054453;28;19920;-87
2022/11/03 04:45:11;;;;;;;;;;;;;;;;;;5054315;28;19924;-87
2022/11/03 04:47:36;;;;;;;;;;;;;;;;;;5036403;28;20295;-88
2022/11/03 04:50:01;;;;;;;;;;;;;;;;;;5054375;28;19916;-88
2022/11/03 04:52:28;;;;;;;;;;;;;;;;;;5054335;28;20360;-87
2022/11/03 04:54:54;;;;;;;;;;;;;;;;;;5053987;28;19929;-87
2022/11/03 04:57:19;;;;;;;;;;;;;;;;;;5042426;28;19921;-87
2022/11/03 04:59:46;;;;;;;;;;;;;;;;;;5051005;28;19921;-87
2022/11/03 05:02:16;;;;;;;;;;;;;;;;;;5050630;28;20287;-86
2022/11/03 05:04:42;;;;;;;;;;;;;;;;;;5047527;28;20447;-85
2022/11/03 05:07:27;;;;;;;;;;;;;;;;;;5049616;28;20048;-86
2022/11/03 05:09:53;;;;;;;;;;;;;;;;;;5053493;28;19990;-85
2022/11/03 05:12:19;;;;;;;;;;;;;;;;;;5052864;28;20273;-87
2022/11/03 05:14:44;;;;;;;;;;;;;;;;;;5048145;28;19971;-85
2022/11/03 05:17:35;;;;;;;;;;;;;;;;;;5038297;28;20291;-86
2022/11/03 05:20:02;;;;;;;;;;;;;;;;;;5030111;28;20312;-84
2022/11/03 05:22:33;;;;;;;;;;;;;;;;;;5016037;28;19920;-86
2022/11/03 05:25:22;;;;;;;;;;;;;;;;;;5036259;28;19980;-85
2022/11/03 05:27:48;;;;;;;;;;;;;;;;;;5031571;28;20331;-86
2022/11/03 05:30:13;;;;;;;;;;;;;;;;;;5031445;28;19971;-86
2022/11/03 05:32:39;;;;;;;;;;;;;;;;;;5032225;28;19928;-88
2022/11/03 05:35:10;;;;;;;;;;;;;;;;;;5039169;28;19936;-88
2022/11/03 05:37:36;;;;;;;;;;;;;;;;;;5033467;28;20403;-88
2022/11/03 05:40:16;;;;;;;;;;;;;;;;;;5032611;28;19956;-87
2022/11/03 05:42:44;;;;;;;;;;;;;;;;;;5033089;28;19939;-88
2022/11/03 05:45:18;;;;;;;;;;;;;;;;;;5034135;28;20280;-88
2022/11/03 05:47:44;;;;;;;;;;;;;;;;;;5033361;28;19924;-88
2022/11/03 05:50:15;;;;;;;;;;;;;;;;;;5033124;28;20351;-86
2022/11/03 05:52:42;;;;;;;;;;;;;;;;;;5042485;28;19977;-87
2022/11/03 05:55:16;;;;;;;;;;;;;;;;;;5053069;28;19971;-88
2022/11/03 05:57:41;;;;;;;;;;;;;;;;;;5053131;28;19921;-89
2022/11/03 06:00:18;;;;;;;;;;;;;;;;;;5052870;28;19978;-88
2022/11/03 06:02:44;;;;;;;;;;;;;;;;;;5053222;28;19924;-87
2022/11/03 06:05:15;;;;;;;;;;;;;;;;;;5052558;28;19921;-87
2022/11/03 06:07:41;;;;;;;;;;;;;;;;;;5052425;28;19924;-88
2022/11/03 06:10:25;;;;;;;;;;;;;;;;;;5052848;28;19917;-86
2022/11/03 06:12:53;;;;;;;;;;;;;;;;;;5054118;28;19916;-89
2022/11/03 06:15:28;;;;;;;;;;;;;;;;;;5034986;28;19971;-86
2022/11/03 06:17:54;;;;;;;;;;;;;;;;;;5052808;28;20364;-86
2022/11/03 06:20:21;;;;;;;;;;;;;;;;;;5052854;28;19924;-86
2022/11/03 06:22:47;;;;;;;;;;;;;;;;;;5053029;28;19963;-87
2022/11/03 06:25:13;;;;;;;;;;;;;;;;;;5038604;28;20307;-86
2022/11/03 06:27:38;;;;;;;;;;;;;;;;;;5038968;28;19917;-86
2022/11/03 06:30:19;;;;;;;;;;;;;;;;;;5063642;28;19928;-87
2022/11/03 06:32:55;;;;;;;;;;;;;;;;;;;;;
2022/11/03 06:35:22;;;;;;;;;;;;;;;;;;5065355;28;20016;-85
2022/11/03 06:37:49;;;;;;;;;;;;;;;;;;5036806;28;20356;-88
2022/11/03 06:40:14;;;;;;;;;;;;;;;;;;5056998;28;19968;-87
2022/11/03 06:42:40;;;;;;;;;;;;;;;;;;5055865;28;19952;-85
2022/11/03 06:45:15;;;;;;;;;;;;;;;;;;5038385;28;19956;-86
2022/11/03 06:47:41;;;;;;;;;;;;;;;;;;5056564;28;19921;-87
2022/11/03 06:50:18;;;;;;;;;;;;;;;;;;5056220;28;19971;-85
2022/11/03 06:52:48;;;;;;;;;;;;;;;;;;5052363;28;19924;-86
2022/11/03 06:55:21;;;;;;;;;;;;;;;;;;5055943;28;20384;-88
2022/11/03 06:57:47;;;;;;;;;;;;;;;;;;5056399;28;19917;-88
2022/11/03 07:00:13;;;;;;;;;;;;;;;;;;5056062;28;19920;-87
2022/11/03 07:02:57;;;;;;;;;;;;;;;;;;5056267;28;19920;-90
2022/11/03 07:05:25;;;;;;;;;;;;;;;;;;5053135;28;19964;-87
2022/11/03 07:07:57;;;;;;;;;;;;;;;;;;5051526;28;19939;-87
2022/11/03 07:10:26;;;;;;;;;;;;;;;;;;5038307;28;19916;-87
2022/11/03 07:12:52;;;;;;;;;;;;;;;;;;5051241;28;19921;-87
2022/11/03 07:15:26;;;;;;;;;;;;;;;;;;5038029;28;19978;-86
2022/11/03 07:17:52;;;;;;;;;;;;;;;;;;5056081;28;19920;-86
2022/11/03 07:20:18;;;;;;;;;;;;;;;;;;5055971;28;19924;-86
2022/11/03 07:22:44;;;;;;;;;;;;;;;;;;5037884;28;20039;-86
2022/11/03 07:25:14;;;;;;;;;;;;;;;;;;5059155;28;19924;-87
2022/11/03 07:27:39;;;;;;;;;;;;;;;;;;5055861;28;19959;-88
2022/11/03 07:30:25;;;;;;;;;;;;;;;;;;5037925;28;19921;-85
2022/11/03 07:32:52;;;;;;;;;;;;;;;;;;5054978;28;19978;-88
2022/11/03 07:35:17;;;;;;;;;;;;;;;;;;5036783;28;19921;-86
2022/11/03 07:37:47;;;;;;;;;;;;;;;;;;5055698;28;20016;-86
2022/11/03 07:40:17;;;;;;;;;;;;;;;;;;5055498;28;19927;-86
2022/11/03 07:42:43;;;;;;;;;;;;;;;;;;5066345;28;20063;-88
2022/11/03 07:45:27;;;;;;;;;;;;;;;;;;5042879;28;19956;-87
2022/11/03 07:47:53;;;;;;;;;;;;;;;;;;5070383;28;20312;-88
2022/11/03 07:50:19;;;;;;;;;;;;;;;;;;5065442;28;20015;-86
2022/11/03 07:52:44;;;;;;;;;;;;;;;;;;5056636;28;19920;-86
2022/11/03 07:55:10;;;;;;;;;;;;;;;;;;5055374;28;19962;-87
2022/11/03 07:57:35;;;;;;;;;;;;;;;;;;5055803;28;19996;-87
2022/11/03 08:00:03;;;;;;;;;;;;;;;;;;5054927;28;20403;-86
2022/11/03 08:02:28;;;;;;;;;;;;;;;;;;5037599;28;19963;-85
2022/11/03 08:04:54;;;;;;;;;;;;;;;;;;5037278;28;20364;-86
2022/11/03 08:07:19;;;;;;;;;;;;;;;;;;5055763;28;19979;-86
2022/11/03 08:09:45;;;;;;;;;;;;;;;;;;5054966;28;19916;-86
2022/11/03 08:12:10;;;;;;;;;;;;;;;;;;5036930;28;19917;-85
2022/11/03 08:14:36;;;;;;;;;;;;;;;;;;5055266;28;19917;-86
2022/11/03 08:17:02;;;;;;;;;;;;;;;;;;5036895;28;19921;-85
2022/11/03 08:19:27;;;;;;;;;;;;;;;;;;5054806;28;20443;-85
2022/11/03 08:21:53;;;;;;;;;;;;;;;;;;5054561;28;20380;-85
2022/11/03 08:24:18;;;;;;;;;;;;;;;;;;5054681;28;19990;-86
2022/11/03 08:26:44;;;;;;;;;;;;;;;;;;5045582;28;19924;-86
2022/11/03 08:29:09;;;;;;;;;;;;;;;;;;5034625;28;20427;-86
2022/11/03 08:31:34;;;;;;;;;;;;;;;;;;5045394;28;19924;-87
2022/11/03 08:34:00;;;;;;;;;;;;;;;;;;5054376;28;20402;-87
2022/11/03 08:36:25;;;;;;;;;;;;;;;;;;5036565;28;19924;-86
2022/11/03 08:38:51;;;;;;;;;;;;;;;;;;5054688;28;19928;-88
2022/11/03 08:41:16;;;;;;;;;;;;;;;;;;5053636;28;19920;-87
2022/11/03 08:43:41;;;;;;;;;;;;;;;;;;5092968;23;20407;-85
2022/11/03 08:46:07;;;;;;;;;;;;;;;;;;5070445;28;20065;-86
2022/11/03 08:48:32;;;;;;;;;;;;;;;;;;5074285;28;19959;-87
2022/11/03 08:50:58;;;;;;;;;;;;;;;;;;5074209;28;19917;-87
2022/11/03 08:53:24;;;;;;;;;;;;;;;;;;5072857;28;19917;-87
2022/11/03 08:55:50;;;;;;;;;;;;;;;;;;5073777;28;20433;-86
2022/11/03 08:58:15;;;;;;;;;;;;;;;;;;5074027;28;19960;-87
2022/11/03 09:00:41;;;;;;;;;;;;;;;;;;5072801;28;19922;-88
2022/11/03 09:03:06;;;;;;;;;;;;;;;;;;5074196;28;20360;-85
2022/11/03 09:05:31;;;;;;;;;;;;;;;;;;5061145;28;19967;-87
2022/11/03 09:07:58;;;;;;;;;;;;;;;;;;5080137;28;19916;-86
2022/11/03 09:10:24;;;;;;;;;;;;;;;;;;5093042;28;20529;-87
2022/11/03 09:12:49;;;;;;;;;;;;;;;;;;5090884;28;19969;-88
2022/11/03 09:15:14;;;;;;;;;;;;;;;;;;5084816;28;20287;-88
2022/11/03 09:17:40;;;;;;;;;;;;;;;;;;5065337;28;19971;-88
2022/11/03 09:20:05;;;;;;;;;;;;;;;;;;5069888;28;19928;-87
2022/11/03 09:22:31;;;;;;;;;;;;;;;;;;5071989;28;19970;-86
2022/11/03 09:24:56;;;;;;;;;;;;;;;;;;5073356;28;19948;-86
2022/11/03 09:27:22;;;;;;;;;;;;;;;;;;5072339;28;19962;-86
2022/11/03 09:29:47;;;;;;;;;;;;;;;;;;5073578;28;19917;-85
2022/11/03 09:32:13;;;;;;;;;;;;;;;;;;5073573;28;19916;-86
2022/11/03 09:34:39;;;;;;;;;;;;;;;;;;5073658;28;20006;-86
2022/11/03 09:37:05;;;;;;;;;;;;;;;;;;5073499;28;19916;-87
2022/11/03 09:39:30;;;;;;;;;;;;;;;;;;5072619;28;19920;-88
2022/11/03 09:41:59;;;;;;;;;;;;;;;;;;5072574;28;20367;-88
2022/11/03 09:44:25;;;;;;;;;;;;;;;;;;5072113;28;19958;-87
2022/11/03 09:46:50;;;;;;;;;;;;;;;;;;5073474;28;19962;-87
2022/11/03 09:49:18;;;;;;;;;;;;;;;;;;5073646;28;19931;-87
2022/11/03 09:51:44;;;;;;;;;;;;;;;;;;5056840;28;19928;-87
2022/11/03 09:54:11;;;;;;;;;;;;;;;;;;5053436;28;20292;-86
2022/11/03 09:56:37;;;;;;;;;;;;;;;;;;5053470;28;19921;-88
2022/11/03 09:59:14;;;;;;;;;;;;;;;;;;5051496;28;19923;-86
2022/11/03 10:01:40;;;;;;;;;;;;;;;;;;5052008;28;19916;-86
2022/11/03 10:04:07;;;;;;;;;;;;;;;;;;5051986;28;19925;-86
2022/11/03 10:06:33;;;;;;;;;;;;;;;;;;5051110;28;19921;-88
2022/11/03 10:08:58;;;;;;;;;;;;;;;;;;5052188;28;20284;-87
2022/11/03 10:11:23;;;;;;;;;;;;;;;;;;5052283;28;19917;-87
2022/11/03 10:13:52;;;;;;;;;;;;;;;;;;5052425;28;19916;-87
2022/11/03 10:16:20;;;;;;;;;;;;;;;;;;5052835;28;19991;-87
2022/11/03 10:18:45;;;;;;;;;;;;;;;;;;5052120;28;19970;-85
2022/11/03 10:21:18;;;;;;;;;;;;;;;;;;5053225;28;20292;-85
2022/11/03 10:23:44;;;;;;;;;;;;;;;;;;5053147;28;19943;-86
2022/11/03 10:26:10;;;;;;;;;;;;;;;;;;5052966;28;19917;-85
2022/11/03 10:28:36;;;;;;;;;;;;;;;;;;5052892;28;19999;-86
2022/11/03 10:31:06;;;;;;;;;;;;;;;;;;5052953;28;20387;-85
2022/11/03 10:33:39;;;;;;;;;;;;;;;;;;5053450;28;20268;-88
2022/11/03 10:36:13;;;;;;;;;;;;;;;;;;5052781;28;19921;-86
2022/11/03 10:38:39;;;;;;;;;;;;;;;;;;5052971;28;19975;-86
2022/11/03 10:41:20;;;;;;;;;;;;;;;;;;5052903;28;19964;-85
2022/11/03 10:43:57;;;;;;;;;;;;;;;;;;5059470;28;19925;-86
2022/11/03 10:46:23;;;;;;;;;;;;;;;;;;5072794;28;19916;-86
2022/11/03 10:49:00;;;;;;;;;;;;;;;;;;5072928;28;19912;-87
2022/11/03 10:51:25;;;;;;;;;;;;;;;;;;5054817;28;20383;-86
2022/11/03 10:53:51;;;;;;;;;;;;;;;;;;5073370;28;20027;-86
2022/11/03 10:56:16;;;;;;;;;;;;;;;;;;5072968;28;19920;-86
2022/11/03 10:58:42;;;;;;;;;;;;;;;;;;5072826;28;19924;-87
2022/11/03 11:01:09;;;;;;;;;;;;;;;;;;5073735;28;20402;-87
2022/11/03 11:03:38;;;;;;;;;;;;;;;;;;5054792;28;19916;-85
2022/11/03 11:06:03;;;;;;;;;;;;;;;;;;5073083;28;19917;-84
2022/11/03 11:08:30;;;;;;;;;;;;;;;;;;5072883;28;19939;-84
2022/11/03 11:10:55;;;;;;;;;;;;;;;;;;5074075;28;19924;-85
2022/11/03 11:13:20;;;;;;;;;;;;;;;;;;5076477;28;19916;-84
2022/11/03 11:15:47;;;;;;;;;;;;;;;;;;5076275;28;20283;-86
2022/11/03 11:18:39;;;;;;;;;;;;;;;;;;5058276;28;19993;-85
2022/11/03 11:21:19;;;;;;;;;;;;;;;;;;5060299;28;20015;-85
2022/11/03 11:23:45;;;;;;;;;;;;;;;;;;5076538;28;19920;-85
2022/11/03 11:26:23;;;;;;;;;;;;;;;;;;5058429;28;19916;-85
2022/11/03 11:29:07;;;;;;;;;;;;;;;;;;5076458;28;19916;-85
2022/11/03 11:31:33;;;;;;;;;;;;;;;;;;5076536;28;19917;-84
2022/11/03 11:34:07;;;;;;;;;;;;;;;;;;5058613;28;19920;-85
2022/11/03 11:36:33;;;;;;;;;;;;;;;;;;5086249;28;19938;-86
2022/11/03 11:38:59;;;;;;;;;;;;;;;;;;5080423;28;20383;-87
2022/11/03 11:41:43;;;;;;;;;;;;;;;;;;5086628;28;19920;-85
2022/11/03 11:44:27;;;;;;;;;;;;;;;;;;5096896;28;20037;-85
2022/11/03 11:46:55;;;;;;;;;;;;;;;;;;5058739;28;19916;-86
2022/11/03 11:49:21;;;;;;;;;;;;;;;;;;5076111;28;19971;-87
2022/11/03 11:51:47;;;;;;;;;;;;;;;;;;5075410;28;19928;-86
2022/11/03 11:54:18;;;;;;;;;;;;;;;;;;5075797;28;19917;-88
2022/11/03 11:56:44;;;;;;;;;;;;;;;;;;5075365;28;19916;-86
2022/11/03 11:59:22;;;;;;;;;;;;;;;;;;5075412;28;19912;-85
2022/11/03 12:01:50;;;;;;;;;;;;;;;;;;5075591;28;19917;-87
2022/11/03 12:04:24;;;;;;;;;;;;;;;;;;5075439;28;19916;-87
2022/11/03 12:06:49;;;;;;;;;;;;;;;;;;5078202;28;19923;-87
2022/11/03 12:09:16;;;;;;;;;;;;;;;;;;5095509;28;20397;-87
2022/11/03 12:11:55;;;;;;;;;;;;;;;;;;5095771;28;19927;-87
2022/11/03 12:14:21;;;;;;;;;;;;;;;;;;5095840;28;20011;-88
2022/11/03 12:16:46;;;;;;;;;;;;;;;;;;5096798;28;20010;-86
2022/11/03 12:19:31;;;;;;;;;;;;;;;;;;5078840;28;20322;-87
2022/11/03 12:21:56;;;;;;;;;;;;;;;;;;5094563;28;20350;-86
2022/11/03 12:24:26;;;;;;;;;;;;;;;;;;5075639;28;19920;-87
2022/11/03 12:26:51;;;;;;;;;;;;;;;;;;5094765;28;19916;-88
2022/11/03 12:29:17;;;;;;;;;;;;;;;;;;5095011;28;19927;-86
2022/11/03 12:31:42;;;;;;;;;;;;;;;;;;5095199;28;19920;-87
2022/11/03 12:34:07;;;;;;;;;;;;;;;;;;5076544;28;19989;-88
2022/11/03 12:36:33;;;;;;;;;;;;;;;;;;5094765;28;19916;-86
2022/11/03 12:38:58;;;;;;;;;;;;;;;;;;5070449;28;19916;-85
2022/11/03 12:41:24;;;;;;;;;;;;;;;;;;5076682;28;19962;-86
2022/11/03 12:43:54;;;;;;;;;;;;;;;;;;5092742;28;19943;-87
2022/11/03 12:46:20;;;;;;;;;;;;;;;;;;5094442;28;20011;-87
2022/11/03 12:48:46;;;;;;;;;;;;;;;;;;5094570;28;20163;-87
2022/11/03 12:51:19;;;;;;;;;;;;;;;;;;5070551;28;20459;-87
2022/11/03 12:53:45;;;;;;;;;;;;;;;;;;5075421;28;19916;-85
2022/11/03 12:56:11;;;;;;;;;;;;;;;;;;5094434;28;19916;-87
2022/11/03 12:58:36;;;;;;;;;;;;;;;;;;5094214;28;20379;-86
2022/11/03 13:01:02;;;;;;;;;;;;;;;;;;5075869;28;19912;-85
2022/11/03 13:03:28;;;;;;;;;;;;;;;;;;5094043;28;19922;-88
2022/11/03 13:05:53;;;;;;;;;;;;;;;;;;5094204;28;19920;-88
2022/11/03 13:08:19;;;;;;;;;;;;;;;;;;5076022;28;19912;-88
2022/11/03 13:10:44;;;;;;;;;;;;;;;;;;5076004;28;19916;-87
2022/11/03 13:13:10;;;;;;;;;;;;;;;;;;5111792;28;20329;-86
2022/11/03 13:15:36;;;;;;;;;;;;;;;;;;5095966;28;19972;-86
2022/11/03 13:18:02;;;;;;;;;;;;;;;;;;5095920;28;20006;-87
2022/11/03 13:20:27;;;;;;;;;;;;;;;;;;5114475;28;20366;-86
2022/11/03 13:22:52;;;;;;;;;;;;;;;;;;5095751;28;19955;-87
2022/11/03 13:25:18;;;;;;;;;;;;;;;;;;5114339;28;20007;-86
2022/11/03 13:27:43;;;;;;;;;;;;;;;;;;5095791;28;20002;-86
2022/11/03 13:30:10;;;;;;;;;;;;;;;;;;5114096;28;19938;-86
2022/11/03 13:32:36;;;;;;;;;;;;;;;;;;5106002;28;19924;-87
2022/11/03 13:35:01;;;;;;;;;;;;;;;;;;5094032;28;19927;-86
2022/11/03 13:37:27;;;;;;;;;;;;;;;;;;5092873;28;19920;-86
2022/11/03 13:39:52;;;;;;;;;;;;;;;;;;5093790;28;19916;-86
2022/11/03 13:42:17;;;;;;;;;;;;;;;;;;5094002;28;19967;-88
2022/11/03 13:44:43;;;;;;;;;;;;;;;;;;5093601;28;19927;-87
2022/11/03 13:47:08;;;;;;;;;;;;;;;;;;5092680;28;19916;-85
2022/11/03 13:49:34;;;;;;;;;;;;;;;;;;5092457;28;19923;-86
2022/11/03 13:52:00;;;;;;;;;;;;;;;;;;5092991;28;19916;-87
2022/11/03 13:54:27;;;;;;;;;;;;;;;;;;5092565;28;20182;-86
2022/11/03 13:56:52;;;;;;;;;;;;;;;;;;5092853;28;20451;-85
2022/11/03 13:59:18;;;;;;;;;;;;;;;;;;5074698;28;20311;-87
2022/11/03 14:01:43;;;;;;;;;;;;;;;;;;5093241;28;19984;-86
2022/11/03 14:04:09;;;;;;;;;;;;;;;;;;5093944;28;19965;-86
2022/11/03 14:06:34;;;;;;;;;;;;;;;;;;5090537;28;19924;-87
2022/11/03 14:09:00;;;;;;;;;;;;;;;;;;5078539;28;19967;-87
2022/11/03 14:14:09;;;;;;;;;;;;;;;;;;5093684;28;20022;-85
2022/11/03 14:16:35;;;;;;;;;;;;;;;;;;5093606;28;19955;-86
2022/11/03 14:19:00;;;;;;;;;;;;;;;;;;5075563;28;19924;-87
2022/11/03 14:21:25;;;;;;;;;;;;;;;;;;5093204;28;20014;-87
2022/11/03 14:23:51;;;;;;;;;;;;;;;;;;5093331;28;20295;-86
2022/11/03 14:26:16;;;;;;;;;;;;;;;;;;5093287;28;19913;-87
2022/11/03 14:28:42;;;;;;;;;;;;;;;;;;5093009;28;20297;-86
2022/11/03 14:31:07;;;;;;;;;;;;;;;;;;5084659;28;20398;-87
2022/11/03 14:33:33;;;;;;;;;;;;;;;;;;5087719;28;20383;-86
2022/11/03 14:35:58;;;;;;;;;;;;;;;;;;5092889;28;19916;-86
2022/11/03 14:38:24;;;;;;;;;;;;;;;;;;5090205;28;20290;-88
2022/11/03 14:43:33;;;;;;;;;;;;;;;;;;5077300;28;20408;-85
2022/11/03 14:45:58;;;;;;;;;;;;;;;;;;5088088;28;19952;-86
2022/11/03 14:48:24;;;;;;;;;;;;;;;;;;5096814;28;19969;-86
2022/11/03 14:50:49;;;;;;;;;;;;;;;;;;5095875;28;20598;-87
2022/11/03 14:53:15;;;;;;;;;;;;;;;;;;5096653;28;19973;-86
2022/11/03 14:55:40;;;;;;;;;;;;;;;;;;5098644;28;19917;-88
2022/11/03 14:58:06;;;;;;;;;;;;;;;;;;5097051;28;19919;-89
2022/11/03 15:00:31;;;;;;;;;;;;;;;;;;5096712;28;19916;-89
2022/11/03 15:02:57;;;;;;;;;;;;;;;;;;5085052;28;19916;-88
2022/11/03 15:05:43;;;;;;;;;;;;;;;;;;5078543;28;19927;-88
2022/11/03 15:08:08;;;;;;;;;;;;;;;;;;5090795;28;20287;-90
2022/11/03 15:10:33;;;;;;;;;;;;;;;;;;5065261;28;19928;-89
2022/11/03 15:12:58;;;;;;;;;;;;;;;;;;5067729;28;19920;-87
2022/11/03 15:15:24;;;;;;;;;;;;;;;;;;5080357;28;19920;-88
2022/11/03 15:17:49;;;;;;;;;;;;;;;;;;5067390;28;20007;-87
2022/11/03 15:20:15;;;;;;;;;;;;;;;;;;5082512;28;20042;-87
2022/11/03 15:22:40;;;;;;;;;;;;;;;;;;5088044;28;19961;-87
2022/11/03 15:25:07;;;;;;;;;;;;;;;;;;5070146;28;19928;-91
2022/11/03 15:27:32;;;;;;;;;;;;;;;;;;5090054;28;19935;-88
2022/11/03 15:29:58;;;;;;;;;;;;;;;;;;5082002;28;19920;-89
2022/11/03 15:32:23;;;;;;;;;;;;;;;;;;5074452;28;20371;-88
2022/11/03 15:34:48;;;;;;;;;;;;;;;;;;5076180;28;19916;-91
2022/11/03 15:37:14;;;;;;;;;;;;;;;;;;5076311;28;19962;-89
2022/11/03 15:39:40;;;;;;;;;;;;;;;;;;5074957;28;19947;-89
2022/11/03 15:42:05;;;;;;;;;;;;;;;;;;5087253;28;19920;-90
2022/11/03 15:44:30;;;;;;;;;;;;;;;;;;5087937;28;19931;-90
2022/11/03 15:46:56;;;;;;;;;;;;;;;;;;5101368;28;20455;-89
2022/11/03 15:49:22;;;;;;;;;;;;;;;;;;5089383;28;19927;-87
2022/11/03 15:51:47;;;;;;;;;;;;;;;;;;5103485;28;20865;-88
2022/11/03 15:54:12;;;;;;;;;;;;;;;;;;5078607;28;19945;-90
2022/11/03 15:56:38;;;;;;;;;;;;;;;;;;5079402;28;19923;-89
2022/11/03 15:59:03;;;;;;;;;;;;;;;;;;5076290;28;19919;-89
2022/11/03 16:01:29;;;;;;;;;;;;;;;;;;5080826;28;21879;-87
2022/11/03 16:03:54;;;;;;;;;;;;;;;;;;5090647;28;19923;-90
2022/11/03 16:06:20;;;;;;;;;;;;;;;;;;5096903;28;19916;-88
2022/11/03 16:08:46;;;;;;;;;;;;;;;;;;5083589;28;19920;-89
2022/11/03 16:11:11;;;;;;;;;;;;;;;;;;5086222;28;19922;-88
2022/11/03 16:13:37;;;;;;;;;;;;;;;;;;5094790;28;19951;-90
2022/11/03 16:16:02;;;;;;;;;;;;;;;;;;5075159;28;19919;-89
2022/11/03 16:18:27;;;;;;;;;;;;;;;;;;5080659;28;19968;-87
2022/11/03 16:20:53;;;;;;;;;;;;;;;;;;5099993;28;19920;-87
2022/11/03 16:23:18;;;;;;;;;;;;;;;;;;5100573;28;19945;-86
2022/11/03 16:25:44;;;;;;;;;;;;;;;;;;5095772;28;19920;-86
2022/11/03 16:28:09;;;;;;;;;;;;;;;;;;5090441;28;19920;-89
2022/11/03 16:30:37;;;;;;;;;;;;;;;;;;5077427;28;19912;-90
2022/11/03 16:33:02;;;;;;;;;;;;;;;;;;5090433;28;19966;-88
2022/11/03 16:35:28;;;;;;;;;;;;;;;;;;5073868;28;19963;-86
2022/11/03 16:37:54;;;;;;;;;;;;;;;;;;5078398;28;19946;-87
2022/11/03 16:40:19;;;;;;;;;;;;;;;;;;5075509;28;20446;-88
2022/11/03 16:42:45;;;;;;;;;;;;;;;;;;5098668;28;19979;-87
2022/11/03 16:45:15;;;;;;;;;;;;;;;;;;5091154;28;20541;-89
2022/11/03 16:47:41;;;;;;;;;;;;;;;;;;5075187;28;19917;-89
2022/11/03 16:50:06;;;;;;;;;;;;;;;;;;5097413;28;19920;-90
2022/11/03 16:52:32;;;;;;;;;;;;;;;;;;5097762;28;19916;-86
2022/11/03 16:54:57;;;;;;;;;;;;;;;;;;5094762;28;19924;-87
2022/11/03 16:57:23;;;;;;;;;;;;;;;;;;5093749;28;19916;-87
2022/11/03 16:59:48;;;;;;;;;;;;;;;;;;5093875;28;19920;-88
2022/11/03 17:02:14;;;;;;;;;;;;;;;;;;5091265;28;20452;-87
2022/11/03 17:04:40;;;;;;;;;;;;;;;;;;5084963;28;19928;-84
2022/11/03 17:07:05;;;;;;;;;;;;;;;;;;5068912;28;19931;-87
2022/11/03 17:09:31;;;;;;;;;;;;;;;;;;5066227;28;19924;-84
2022/11/03 17:11:56;;;;;;;;;;;;;;;;;;5090267;28;19923;-87